This demonstration page uses our WeatherBlox Daily Observations layout. Learn more.

Left ArrowRight Arrow

36.17497, -115.13722

Hourly Observations for April 20, 2021

Temp ( °F °C ) Dew Point ( °F °C ) Humidity (%) Winds ( mph kmh ) Pressure ( in mb ) Visibility ( mi km ) Precip ( " mm )
12:53 am 00:53 Clear 76 24.4 3 -16.1 6 6 VRB 3 6 29.8 1009 10 16.0934 N/A
1:53 am 01:53 Clear 72 22.2 5 -15 7 7 NW 9 15 29.81 1010 10 16.0934 N/A
2:53 am 02:53 Clear 70 21.1 8 -13.3 9 9 N N/A 29.82 1010 10 16.0934 N/A
3:53 am 03:53 Clear 68 20 15 -9.4 13 13 E 8 13 29.83 1010 10 16.0934 N/A
4:53 am 04:53 Clear 66 18.9 18 -7.8 16 16 SSW 9 15 29.84 1011 10 16.0934 N/A
5:53 am 05:53 Clear 65 18.3 19 -7.2 17 17 S 8 13 29.85 1011 10 16.0934 N/A
6:53 am 06:53 Sunny 64 17.8 20 -6.7 18 18 SSE 10 17 29.87 1012 10 16.0934 N/A
7:53 am 07:53 Sunny 67 19.4 20 -6.7 17 17 S 8 13 29.89 1012 10 16.0934 N/A
8:53 am 08:53 Sunny 70 21.1 21 -6.1 16 16 SSW 8 13 29.88 1012 10 16.0934 N/A
9:53 am 09:53 Sunny 73 22.8 20 -6.7 13 13 N N/A 29.89 1012 10 16.0934 N/A
10:53 am 10:53 Sunny 77 25 20 -6.7 12 12 ESE 12 19 29.87 1011 10 16.0934 N/A
11:53 am 11:53 Sunny 78 25.6 19 -7.2 11 11 SE 10 17 29.84 1011 10 16.0934 N/A
12:53 pm 12:53 Sunny 79 26.1 19 -7.2 10 10 E 8 13 29.8 1009 10 16.0934 N/A
1:53 pm 13:53 Sunny 81 27.2 17 -8.3 9 9 SSE 6 9 29.76 1008 10 16.0934 N/A
2:53 pm 14:53 Sunny 83 28.3 17 -8.3 8 8 ESE 10 17 29.72 1006 10 16.0934 N/A
3:53 pm 15:53 Sunny 84 28.9 16 -8.9 8 8 E 9 15 29.67 1005 10 16.0934 N/A
4:53 pm 16:53 Sunny 84 28.9 15 -9.4 7 7 E 10 17 29.65 1004 10 16.0934 N/A
5:53 pm 17:53 Sunny 84 28.9 15 -9.4 7 7 NNE 8 13 29.63 1003 10 16.0934 N/A
6:53 pm 18:53 Sunny 83 28.3 12 -11.1 7 7 ENE 6 9 29.6 1002 10 16.0934 N/A
7:53 pm 19:53 Clear 83 28.3 11 -11.7 6 6 N N/A 29.59 1002 10 16.0934 N/A
8:53 pm 20:53 Clear 80 26.7 17 -8.3 9 9 S 8 13 29.6 1002 10 16.0934 N/A
9:53 pm 21:53 Clear 81 27.2 12 -11.1 7 7 S 17 28 29.6 1002 10 16.0934 N/A
10:53 pm 22:53 Clear 79 26.1 26 -3.3 14 14 S 16 26 29.58 1002 10 16.0934 N/A
11:53 pm 23:53 Clear 77 25 27 -2.8 16 16 S 16 26 29.6 1002 10 16.0934 N/A

Powered by AerisWeather